sensor_id;sensor_type;location;lat;lon;timestamp;P1;durP1;ratioP1;P2;durP2;ratioP2
16977;SDS011;8605;52.548;4.918;2023-01-20T00:02:23;3.73;;;2.27;;
16977;SDS011;8605;52.548;4.918;2023-01-20T00:07:26;4.43;;;2.90;;
16977;SDS011;8605;52.548;4.918;2023-01-20T00:12:30;4.30;;;2.97;;
16977;SDS011;8605;52.548;4.918;2023-01-20T00:17:33;3.73;;;2.20;;
16977;SDS011;8605;52.548;4.918;2023-01-20T00:22:36;4.97;;;3.30;;
16977;SDS011;8605;52.548;4.918;2023-01-20T00:27:43;6.03;;;2.70;;
16977;SDS011;8605;52.548;4.918;2023-01-20T00:32:47;2.20;;;1.80;;
16977;SDS011;8605;52.548;4.918;2023-01-20T00:37:50;3.13;;;1.77;;
16977;SDS011;8605;52.548;4.918;2023-01-20T00:42:54;6.23;;;3.20;;
16977;SDS011;8605;52.548;4.918;2023-01-20T00:47:57;6.30;;;3.97;;
16977;SDS011;8605;52.548;4.918;2023-01-20T00:52:59;6.83;;;4.83;;
16977;SDS011;8605;52.548;4.918;2023-01-20T00:58:04;5.70;;;4.50;;
16977;SDS011;8605;52.548;4.918;2023-01-20T01:03:07;7.73;;;6.03;;
16977;SDS011;8605;52.548;4.918;2023-01-20T01:08:10;8.23;;;4.43;;
16977;SDS011;8605;52.548;4.918;2023-01-20T01:13:14;5.50;;;4.37;;
16977;SDS011;8605;52.548;4.918;2023-01-20T01:18:17;7.10;;;4.73;;
16977;SDS011;8605;52.548;4.918;2023-01-20T01:23:20;9.40;;;5.60;;
16977;SDS011;8605;52.548;4.918;2023-01-20T01:28:24;9.00;;;4.97;;
16977;SDS011;8605;52.548;4.918;2023-01-20T01:33:27;7.67;;;5.10;;
16977;SDS011;8605;52.548;4.918;2023-01-20T01:38:30;15.87;;;5.30;;
16977;SDS011;8605;52.548;4.918;2023-01-20T01:43:35;9.30;;;5.47;;
16977;SDS011;8605;52.548;4.918;2023-01-20T01:48:40;10.47;;;6.30;;
16977;SDS011;8605;52.548;4.918;2023-01-20T01:53:45;10.20;;;5.03;;
16977;SDS011;8605;52.548;4.918;2023-01-20T01:58:56;7.70;;;5.00;;
16977;SDS011;8605;52.548;4.918;2023-01-20T02:04:02;6.63;;;4.17;;
16977;SDS011;8605;52.548;4.918;2023-01-20T02:09:07;7.00;;;4.93;;
16977;SDS011;8605;52.548;4.918;2023-01-20T02:14:11;9.17;;;4.73;;
16977;SDS011;8605;52.548;4.918;2023-01-20T02:19:20;9.53;;;4.67;;
16977;SDS011;8605;52.548;4.918;2023-01-20T02:24:41;5.47;;;4.07;;
16977;SDS011;8605;52.548;4.918;2023-01-20T02:36:05;9.40;;;4.23;;
16977;SDS011;8605;52.548;4.918;2023-01-20T02:41:11;10.60;;;4.67;;
16977;SDS011;8605;52.548;4.918;2023-01-20T02:46:20;7.63;;;4.23;;
16977;SDS011;8605;52.548;4.918;2023-01-20T02:51:28;5.07;;;3.80;;
16977;SDS011;8605;52.548;4.918;2023-01-20T02:56:33;7.03;;;4.27;;
16977;SDS011;8605;52.548;4.918;2023-01-20T03:01:37;9.70;;;4.77;;
16977;SDS011;8605;52.548;4.918;2023-01-20T03:06:45;9.97;;;6.20;;
16977;SDS011;8605;52.548;4.918;2023-01-20T03:11:50;18.63;;;6.93;;
16977;SDS011;8605;52.548;4.918;2023-01-20T03:16:54;13.77;;;6.33;;
16977;SDS011;8605;52.548;4.918;2023-01-20T03:21:59;13.73;;;8.17;;
16977;SDS011;8605;52.548;4.918;2023-01-20T03:27:02;14.33;;;7.83;;
16977;SDS011;8605;52.548;4.918;2023-01-20T03:32:06;21.53;;;9.07;;
16977;SDS011;8605;52.548;4.918;2023-01-20T03:37:12;20.97;;;10.47;;
16977;SDS011;8605;52.548;4.918;2023-01-20T03:42:15;32.77;;;12.93;;
16977;SDS011;8605;52.548;4.918;2023-01-20T03:47:25;18.70;;;11.93;;
16977;SDS011;8605;52.548;4.918;2023-01-20T03:52:33;25.40;;;12.40;;
16977;SDS011;8605;52.548;4.918;2023-01-20T03:57:50;27.17;;;13.27;;
16977;SDS011;8605;52.548;4.918;2023-01-20T04:02:54;33.50;;;14.27;;
16977;SDS011;8605;52.548;4.918;2023-01-20T04:08:01;33.90;;;12.90;;
16977;SDS011;8605;52.548;4.918;2023-01-20T04:13:06;41.97;;;16.00;;
16977;SDS011;8605;52.548;4.918;2023-01-20T04:18:11;33.77;;;14.30;;
16977;SDS011;8605;52.548;4.918;2023-01-20T04:23:18;38.57;;;14.63;;
16977;SDS011;8605;52.548;4.918;2023-01-20T04:28:25;33.30;;;14.03;;
16977;SDS011;8605;52.548;4.918;2023-01-20T04:33:27;37.40;;;14.77;;
16977;SDS011;8605;52.548;4.918;2023-01-20T04:38:31;38.77;;;16.20;;
16977;SDS011;8605;52.548;4.918;2023-01-20T04:43:35;41.10;;;15.27;;
16977;SDS011;8605;52.548;4.918;2023-01-20T04:48:37;25.73;;;13.30;;
16977;SDS011;8605;52.548;4.918;2023-01-20T04:53:42;29.23;;;13.27;;
16977;SDS011;8605;52.548;4.918;2023-01-20T04:58:46;26.60;;;13.30;;
16977;SDS011;8605;52.548;4.918;2023-01-20T05:03:49;26.27;;;10.67;;
16977;SDS011;8605;52.548;4.918;2023-01-20T05:08:53;14.93;;;8.73;;
16977;SDS011;8605;52.548;4.918;2023-01-20T05:13:56;20.33;;;9.37;;
16977;SDS011;8605;52.548;4.918;2023-01-20T05:18:59;21.97;;;9.77;;
16977;SDS011;8605;52.548;4.918;2023-01-20T05:24:04;15.57;;;8.93;;
16977;SDS011;8605;52.548;4.918;2023-01-20T05:29:07;19.77;;;9.47;;
16977;SDS011;8605;52.548;4.918;2023-01-20T05:34:10;18.83;;;8.23;;
16977;SDS011;8605;52.548;4.918;2023-01-20T05:39:14;17.53;;;8.77;;
16977;SDS011;8605;52.548;4.918;2023-01-20T05:44:17;16.37;;;8.73;;
16977;SDS011;8605;52.548;4.918;2023-01-20T05:49:20;15.57;;;8.00;;
16977;SDS011;8605;52.548;4.918;2023-01-20T05:54:24;18.07;;;7.70;;
16977;SDS011;8605;52.548;4.918;2023-01-20T05:59:27;16.47;;;8.77;;
16977;SDS011;8605;52.548;4.918;2023-01-20T06:04:30;16.60;;;8.63;;
16977;SDS011;8605;52.548;4.918;2023-01-20T06:09:35;15.10;;;8.83;;
16977;SDS011;8605;52.548;4.918;2023-01-20T06:14:37;19.93;;;9.63;;
16977;SDS011;8605;52.548;4.918;2023-01-20T06:19:40;17.40;;;8.67;;
16977;SDS011;8605;52.548;4.918;2023-01-20T06:24:44;25.37;;;10.87;;
16977;SDS011;8605;52.548;4.918;2023-01-20T06:29:47;17.40;;;11.07;;
16977;SDS011;8605;52.548;4.918;2023-01-20T06:34:51;19.13;;;11.10;;
16977;SDS011;8605;52.548;4.918;2023-01-20T06:39:55;20.03;;;11.13;;
16977;SDS011;8605;52.548;4.918;2023-01-20T06:44:58;21.50;;;10.87;;
16977;SDS011;8605;52.548;4.918;2023-01-20T06:50:01;27.47;;;12.20;;
16977;SDS011;8605;52.548;4.918;2023-01-20T06:55:06;23.17;;;11.47;;
16977;SDS011;8605;52.548;4.918;2023-01-20T07:00:10;26.30;;;12.80;;
16977;SDS011;8605;52.548;4.918;2023-01-20T07:05:13;23.70;;;12.17;;
16977;SDS011;8605;52.548;4.918;2023-01-20T07:10:18;26.67;;;12.70;;
16977;SDS011;8605;52.548;4.918;2023-01-20T07:15:21;31.93;;;15.00;;
16977;SDS011;8605;52.548;4.918;2023-01-20T07:20:24;38.80;;;16.33;;
16977;SDS011;8605;52.548;4.918;2023-01-20T07:25:28;37.47;;;17.00;;
16977;SDS011;8605;52.548;4.918;2023-01-20T07:30:31;36.97;;;15.30;;
16977;SDS011;8605;52.548;4.918;2023-01-20T07:35:34;30.77;;;14.83;;
16977;SDS011;8605;52.548;4.918;2023-01-20T07:40:39;32.07;;;13.90;;
16977;SDS011;8605;52.548;4.918;2023-01-20T07:45:42;37.90;;;15.17;;
16977;SDS011;8605;52.548;4.918;2023-01-20T07:50:48;31.50;;;14.40;;
16977;SDS011;8605;52.548;4.918;2023-01-20T07:55:52;36.10;;;16.43;;
16977;SDS011;8605;52.548;4.918;2023-01-20T08:00:55;33.23;;;14.17;;
16977;SDS011;8605;52.548;4.918;2023-01-20T08:06:00;33.63;;;14.83;;
16977;SDS011;8605;52.548;4.918;2023-01-20T08:11:05;33.10;;;14.47;;
16977;SDS011;8605;52.548;4.918;2023-01-20T08:16:10;36.77;;;14.63;;
16977;SDS011;8605;52.548;4.918;2023-01-20T08:21:18;30.77;;;15.33;;
16977;SDS011;8605;52.548;4.918;2023-01-20T08:26:26;37.90;;;14.20;;
16977;SDS011;8605;52.548;4.918;2023-01-20T08:31:34;44.50;;;18.23;;
16977;SDS011;8605;52.548;4.918;2023-01-20T08:36:38;33.67;;;13.87;;
16977;SDS011;8605;52.548;4.918;2023-01-20T08:41:44;38.70;;;13.90;;
16977;SDS011;8605;52.548;4.918;2023-01-20T08:46:47;31.43;;;14.30;;
16977;SDS011;8605;52.548;4.918;2023-01-20T08:51:53;34.60;;;15.17;;
16977;SDS011;8605;52.548;4.918;2023-01-20T08:56:57;32.63;;;12.63;;
16977;SDS011;8605;52.548;4.918;2023-01-20T09:02:05;30.80;;;13.10;;
16977;SDS011;8605;52.548;4.918;2023-01-20T09:07:11;25.57;;;12.70;;
16977;SDS011;8605;52.548;4.918;2023-01-20T09:12:19;24.83;;;13.10;;
16977;SDS011;8605;52.548;4.918;2023-01-20T09:17:22;24.70;;;11.70;;
16977;SDS011;8605;52.548;4.918;2023-01-20T09:22:25;25.73;;;12.87;;
16977;SDS011;8605;52.548;4.918;2023-01-20T09:27:29;34.80;;;13.23;;
16977;SDS011;8605;52.548;4.918;2023-01-20T09:32:32;25.67;;;11.43;;
16977;SDS011;8605;52.548;4.918;2023-01-20T09:37:35;24.33;;;10.63;;
16977;SDS011;8605;52.548;4.918;2023-01-20T09:42:59;18.77;;;10.10;;
16977;SDS011;8605;52.548;4.918;2023-01-20T09:48:29;24.60;;;9.00;;
16977;SDS011;8605;52.548;4.918;2023-01-20T09:53:55;15.97;;;9.07;;
16977;SDS011;8605;52.548;4.918;2023-01-20T09:59:04;15.50;;;7.90;;
16977;SDS011;8605;52.548;4.918;2023-01-20T10:04:13;19.97;;;10.23;;
16977;SDS011;8605;52.548;4.918;2023-01-20T10:09:18;27.90;;;10.37;;
16977;SDS011;8605;52.548;4.918;2023-01-20T10:14:49;17.57;;;9.53;;
16977;SDS011;8605;52.548;4.918;2023-01-20T10:25:23;18.67;;;8.83;;
16977;SDS011;8605;52.548;4.918;2023-01-20T10:35:59;18.87;;;10.07;;
16977;SDS011;8605;52.548;4.918;2023-01-20T10:41:05;21.27;;;10.23;;
16977;SDS011;8605;52.548;4.918;2023-01-20T10:46:18;18.03;;;9.17;;
16977;SDS011;8605;52.548;4.918;2023-01-20T10:51:37;19.37;;;9.90;;
16977;SDS011;8605;52.548;4.918;2023-01-20T10:56:44;13.57;;;8.37;;
16977;SDS011;8605;52.548;4.918;2023-01-20T11:01:59;35.17;;;16.17;;
16977;SDS011;8605;52.548;4.918;2023-01-20T11:07:14;16.13;;;9.13;;
16977;SDS011;8605;52.548;4.918;2023-01-20T11:12:21;10.67;;;7.30;;
16977;SDS011;8605;52.548;4.918;2023-01-20T11:17:30;28.07;;;7.90;;
16977;SDS011;8605;52.548;4.918;2023-01-20T11:22:36;13.87;;;6.70;;
16977;SDS011;8605;52.548;4.918;2023-01-20T11:27:41;15.90;;;7.87;;
16977;SDS011;8605;52.548;4.918;2023-01-20T11:32:47;15.37;;;7.83;;
16977;SDS011;8605;52.548;4.918;2023-01-20T11:38:22;17.07;;;7.83;;
16977;SDS011;8605;52.548;4.918;2023-01-20T11:43:28;16.83;;;8.20;;
16977;SDS011;8605;52.548;4.918;2023-01-20T11:48:33;16.43;;;8.57;;
16977;SDS011;8605;52.548;4.918;2023-01-20T11:53:36;15.33;;;9.47;;
16977;SDS011;8605;52.548;4.918;2023-01-20T11:58:47;17.83;;;8.73;;
16977;SDS011;8605;52.548;4.918;2023-01-20T12:09:20;19.93;;;8.87;;
16977;SDS011;8605;52.548;4.918;2023-01-20T12:14:28;22.70;;;9.43;;
16977;SDS011;8605;52.548;4.918;2023-01-20T12:19:36;22.97;;;10.20;;
16977;SDS011;8605;52.548;4.918;2023-01-20T12:24:49;14.73;;;6.73;;
16977;SDS011;8605;52.548;4.918;2023-01-20T12:30:26;18.43;;;9.00;;
16977;SDS011;8605;52.548;4.918;2023-01-20T12:35:36;17.13;;;8.40;;
16977;SDS011;8605;52.548;4.918;2023-01-20T12:40:41;11.93;;;7.43;;
16977;SDS011;8605;52.548;4.918;2023-01-20T12:45:56;13.30;;;6.60;;
16977;SDS011;8605;52.548;4.918;2023-01-20T12:51:24;14.57;;;7.83;;
16977;SDS011;8605;52.548;4.918;2023-01-20T12:56:36;14.27;;;8.30;;
16977;SDS011;8605;52.548;4.918;2023-01-20T13:01:43;19.60;;;10.67;;
16977;SDS011;8605;52.548;4.918;2023-01-20T13:06:55;15.13;;;8.80;;
16977;SDS011;8605;52.548;4.918;2023-01-20T13:12:13;22.33;;;10.30;;
16977;SDS011;8605;52.548;4.918;2023-01-20T13:17:31;18.07;;;9.70;;
16977;SDS011;8605;52.548;4.918;2023-01-20T13:22:37;15.37;;;8.00;;
16977;SDS011;8605;52.548;4.918;2023-01-20T13:27:40;13.57;;;7.00;;
16977;SDS011;8605;52.548;4.918;2023-01-20T13:32:44;14.23;;;6.40;;
16977;SDS011;8605;52.548;4.918;2023-01-20T13:37:52;12.43;;;7.87;;
16977;SDS011;8605;52.548;4.918;2023-01-20T13:42:57;11.23;;;7.20;;
16977;SDS011;8605;52.548;4.918;2023-01-20T13:48:20;13.87;;;7.47;;
16977;SDS011;8605;52.548;4.918;2023-01-20T13:53:28;17.13;;;7.97;;
16977;SDS011;8605;52.548;4.918;2023-01-20T13:58:43;12.97;;;6.27;;
16977;SDS011;8605;52.548;4.918;2023-01-20T14:03:59;13.43;;;7.53;;
16977;SDS011;8605;52.548;4.918;2023-01-20T14:09:08;12.43;;;7.07;;
16977;SDS011;8605;52.548;4.918;2023-01-20T14:14:15;11.00;;;6.23;;
16977;SDS011;8605;52.548;4.918;2023-01-20T14:19:21;13.70;;;7.17;;
16977;SDS011;8605;52.548;4.918;2023-01-20T14:24:33;18.97;;;8.40;;
16977;SDS011;8605;52.548;4.918;2023-01-20T14:29:37;17.83;;;8.37;;
16977;SDS011;8605;52.548;4.918;2023-01-20T14:34:40;174.70;;;32.37;;
16977;SDS011;8605;52.548;4.918;2023-01-20T14:39:44;24.67;;;10.50;;
16977;SDS011;8605;52.548;4.918;2023-01-20T14:44:50;21.17;;;9.73;;
16977;SDS011;8605;52.548;4.918;2023-01-20T14:49:57;19.17;;;9.30;;
16977;SDS011;8605;52.548;4.918;2023-01-20T14:55:02;20.83;;;9.33;;
16977;SDS011;8605;52.548;4.918;2023-01-20T15:00:11;18.77;;;10.53;;
16977;SDS011;8605;52.548;4.918;2023-01-20T15:05:21;18.73;;;9.87;;
16977;SDS011;8605;52.548;4.918;2023-01-20T15:10:29;26.77;;;10.10;;
16977;SDS011;8605;52.548;4.918;2023-01-20T15:15:32;18.47;;;9.40;;
16977;SDS011;8605;52.548;4.918;2023-01-20T15:20:36;20.33;;;10.53;;
16977;SDS011;8605;52.548;4.918;2023-01-20T15:25:42;18.53;;;9.27;;
16977;SDS011;8605;52.548;4.918;2023-01-20T15:30:48;21.13;;;10.67;;
16977;SDS011;8605;52.548;4.918;2023-01-20T15:35:55;27.87;;;10.90;;
16977;SDS011;8605;52.548;4.918;2023-01-20T15:41:01;19.73;;;9.87;;
16977;SDS011;8605;52.548;4.918;2023-01-20T15:46:07;19.67;;;9.70;;
16977;SDS011;8605;52.548;4.918;2023-01-20T15:51:17;15.20;;;8.10;;
16977;SDS011;8605;52.548;4.918;2023-01-20T15:56:23;22.27;;;8.67;;
16977;SDS011;8605;52.548;4.918;2023-01-20T16:01:48;20.10;;;8.50;;
16977;SDS011;8605;52.548;4.918;2023-01-20T16:06:52;14.90;;;8.23;;
16977;SDS011;8605;52.548;4.918;2023-01-20T16:11:59;15.47;;;7.30;;
16977;SDS011;8605;52.548;4.918;2023-01-20T16:17:02;17.13;;;7.93;;
16977;SDS011;8605;52.548;4.918;2023-01-20T16:22:05;18.30;;;8.90;;
16977;SDS011;8605;52.548;4.918;2023-01-20T16:27:15;18.20;;;9.57;;
16977;SDS011;8605;52.548;4.918;2023-01-20T16:32:19;14.83;;;9.20;;
16977;SDS011;8605;52.548;4.918;2023-01-20T16:37:24;27.53;;;10.63;;
16977;SDS011;8605;52.548;4.918;2023-01-20T16:42:28;21.33;;;9.77;;
16977;SDS011;8605;52.548;4.918;2023-01-20T16:47:31;14.10;;;7.67;;
16977;SDS011;8605;52.548;4.918;2023-01-20T16:52:34;17.13;;;8.23;;
16977;SDS011;8605;52.548;4.918;2023-01-20T16:57:38;20.83;;;9.43;;
16977;SDS011;8605;52.548;4.918;2023-01-20T17:02:41;23.23;;;12.17;;
16977;SDS011;8605;52.548;4.918;2023-01-20T17:07:44;25.27;;;9.67;;
16977;SDS011;8605;52.548;4.918;2023-01-20T17:12:49;20.67;;;9.80;;
16977;SDS011;8605;52.548;4.918;2023-01-20T17:17:53;19.57;;;8.77;;
16977;SDS011;8605;52.548;4.918;2023-01-20T17:23:00;22.60;;;11.63;;
16977;SDS011;8605;52.548;4.918;2023-01-20T17:28:05;16.80;;;8.63;;
16977;SDS011;8605;52.548;4.918;2023-01-20T17:33:07;21.30;;;8.47;;
16977;SDS011;8605;52.548;4.918;2023-01-20T17:38:10;22.27;;;8.47;;
16977;SDS011;8605;52.548;4.918;2023-01-20T17:43:15;16.60;;;8.40;;
16977;SDS011;8605;52.548;4.918;2023-01-20T17:48:18;16.30;;;6.80;;
16977;SDS011;8605;52.548;4.918;2023-01-20T17:53:21;16.77;;;9.10;;
16977;SDS011;8605;52.548;4.918;2023-01-20T17:58:25;13.93;;;6.73;;
16977;SDS011;8605;52.548;4.918;2023-01-20T18:03:28;18.53;;;7.87;;
16977;SDS011;8605;52.548;4.918;2023-01-20T18:08:31;17.97;;;8.93;;
16977;SDS011;8605;52.548;4.918;2023-01-20T18:13:35;17.73;;;7.90;;
16977;SDS011;8605;52.548;4.918;2023-01-20T18:18:39;16.07;;;7.03;;
16977;SDS011;8605;52.548;4.918;2023-01-20T18:23:44;16.87;;;9.03;;
16977;SDS011;8605;52.548;4.918;2023-01-20T18:28:51;22.17;;;8.23;;
16977;SDS011;8605;52.548;4.918;2023-01-20T18:33:55;13.43;;;7.60;;
16977;SDS011;8605;52.548;4.918;2023-01-20T18:38:59;17.53;;;9.10;;
16977;SDS011;8605;52.548;4.918;2023-01-20T18:44:05;17.43;;;7.67;;
16977;SDS011;8605;52.548;4.918;2023-01-20T18:49:09;12.97;;;7.60;;
16977;SDS011;8605;52.548;4.918;2023-01-20T18:54:14;9.33;;;6.13;;
16977;SDS011;8605;52.548;4.918;2023-01-20T18:59:20;13.37;;;6.63;;
16977;SDS011;8605;52.548;4.918;2023-01-20T19:04:23;13.37;;;7.07;;
16977;SDS011;8605;52.548;4.918;2023-01-20T19:09:26;15.80;;;7.57;;
16977;SDS011;8605;52.548;4.918;2023-01-20T19:14:31;13.93;;;6.10;;
16977;SDS011;8605;52.548;4.918;2023-01-20T19:19:34;11.23;;;6.20;;
16977;SDS011;8605;52.548;4.918;2023-01-20T19:24:36;17.23;;;6.97;;
16977;SDS011;8605;52.548;4.918;2023-01-20T19:29:41;20.23;;;8.50;;
16977;SDS011;8605;52.548;4.918;2023-01-20T19:34:46;15.70;;;7.80;;
16977;SDS011;8605;52.548;4.918;2023-01-20T19:39:49;19.73;;;9.40;;
16977;SDS011;8605;52.548;4.918;2023-01-20T19:44:53;17.23;;;7.53;;
16977;SDS011;8605;52.548;4.918;2023-01-20T19:49:56;19.07;;;9.27;;
16977;SDS011;8605;52.548;4.918;2023-01-20T19:54:59;20.13;;;9.97;;
16977;SDS011;8605;52.548;4.918;2023-01-20T20:00:04;25.17;;;11.57;;
16977;SDS011;8605;52.548;4.918;2023-01-20T20:05:11;25.77;;;10.87;;
16977;SDS011;8605;52.548;4.918;2023-01-20T20:10:15;25.03;;;12.10;;
16977;SDS011;8605;52.548;4.918;2023-01-20T20:15:20;21.47;;;10.90;;
16977;SDS011;8605;52.548;4.918;2023-01-20T20:20:23;25.00;;;11.27;;
16977;SDS011;8605;52.548;4.918;2023-01-20T20:25:26;21.07;;;10.10;;
16977;SDS011;8605;52.548;4.918;2023-01-20T20:30:31;24.47;;;10.10;;
16977;SDS011;8605;52.548;4.918;2023-01-20T20:35:34;25.97;;;11.27;;
16977;SDS011;8605;52.548;4.918;2023-01-20T20:40:37;22.03;;;10.60;;
16977;SDS011;8605;52.548;4.918;2023-01-20T20:45:41;27.27;;;11.53;;
16977;SDS011;8605;52.548;4.918;2023-01-20T20:50:44;30.67;;;11.77;;
16977;SDS011;8605;52.548;4.918;2023-01-20T20:55:48;31.17;;;11.43;;
16977;SDS011;8605;52.548;4.918;2023-01-20T21:00:55;21.63;;;10.83;;
16977;SDS011;8605;52.548;4.918;2023-01-20T21:05:58;29.23;;;11.50;;
16977;SDS011;8605;52.548;4.918;2023-01-20T21:11:02;22.17;;;12.20;;
16977;SDS011;8605;52.548;4.918;2023-01-20T21:16:10;24.00;;;10.23;;
16977;SDS011;8605;52.548;4.918;2023-01-20T21:21:16;25.93;;;10.37;;
16977;SDS011;8605;52.548;4.918;2023-01-20T21:26:19;23.93;;;11.60;;
16977;SDS011;8605;52.548;4.918;2023-01-20T21:31:24;23.87;;;12.20;;
16977;SDS011;8605;52.548;4.918;2023-01-20T21:36:27;29.23;;;11.60;;
16977;SDS011;8605;52.548;4.918;2023-01-20T21:41:31;27.80;;;11.27;;
16977;SDS011;8605;52.548;4.918;2023-01-20T21:46:36;32.07;;;12.00;;
16977;SDS011;8605;52.548;4.918;2023-01-20T21:51:40;25.17;;;11.10;;
16977;SDS011;8605;52.548;4.918;2023-01-20T21:57:01;31.60;;;12.40;;
16977;SDS011;8605;52.548;4.918;2023-01-20T22:02:06;29.63;;;11.00;;
16977;SDS011;8605;52.548;4.918;2023-01-20T22:07:09;27.47;;;12.70;;
16977;SDS011;8605;52.548;4.918;2023-01-20T22:12:12;28.67;;;13.43;;
16977;SDS011;8605;52.548;4.918;2023-01-20T22:17:17;29.37;;;13.20;;
16977;SDS011;8605;52.548;4.918;2023-01-20T22:22:20;28.93;;;11.23;;
16977;SDS011;8605;52.548;4.918;2023-01-20T22:27:23;31.53;;;13.03;;
16977;SDS011;8605;52.548;4.918;2023-01-20T22:32:28;28.90;;;12.23;;
16977;SDS011;8605;52.548;4.918;2023-01-20T22:37:31;28.40;;;12.73;;
16977;SDS011;8605;52.548;4.918;2023-01-20T22:42:34;28.27;;;11.83;;
16977;SDS011;8605;52.548;4.918;2023-01-20T22:47:38;29.83;;;13.00;;
16977;SDS011;8605;52.548;4.918;2023-01-20T22:52:41;29.70;;;13.40;;
16977;SDS011;8605;52.548;4.918;2023-01-20T22:57:44;27.63;;;13.10;;
16977;SDS011;8605;52.548;4.918;2023-01-20T23:02:48;35.90;;;17.07;;
16977;SDS011;8605;52.548;4.918;2023-01-20T23:07:51;32.23;;;11.87;;
16977;SDS011;8605;52.548;4.918;2023-01-20T23:12:54;33.23;;;15.00;;
16977;SDS011;8605;52.548;4.918;2023-01-20T23:17:58;31.67;;;14.00;;
16977;SDS011;8605;52.548;4.918;2023-01-20T23:23:01;26.00;;;11.80;;
16977;SDS011;8605;52.548;4.918;2023-01-20T23:28:04;29.17;;;12.70;;
16977;SDS011;8605;52.548;4.918;2023-01-20T23:33:09;30.33;;;13.97;;
16977;SDS011;8605;52.548;4.918;2023-01-20T23:38:12;30.23;;;12.17;;
16977;SDS011;8605;52.548;4.918;2023-01-20T23:43:15;25.57;;;12.30;;
16977;SDS011;8605;52.548;4.918;2023-01-20T23:48:19;42.83;;;14.90;;
16977;SDS011;8605;52.548;4.918;2023-01-20T23:53:22;27.03;;;12.07;;
16977;SDS011;8605;52.548;4.918;2023-01-20T23:58:25;28.30;;;12.07;;
